Time;durP1;ratioP1;P1;durP2;ratioP2;P2;SDS_P1;SDS_P2;PMS_P1;PMS_P2;Temp;Humidity;BMP_temperature;BMP_pressure;BME280_temperature;BME280_humidity;BME280_pressure;Samples;Min_cycle;Max_cycle;Signal;HPM_P1;HPM_P2
2021/09/03 00:02:00;;;;;;;7.43;5.22;;;;;20.70;102293.00;;;;5008910;28;20193;-78
2021/09/03 00:04:27;;;;;;;7.82;5.45;;;;;20.70;102295.00;;;;5004936;28;20220;-77
2021/09/03 00:06:54;;;;;;;8.85;5.57;;;;;20.70;102293.00;;;;5010115;28;20220;-78
2021/09/03 00:09:22;;;;;;;8.85;4.70;;;;;20.70;102294.00;;;;5015366;28;20192;-77
2021/09/03 00:11:49;;;;;;;8.38;5.25;;;;;20.70;102295.00;;;;5014005;28;20201;-78
2021/09/03 00:14:18;;;;;;;8.35;5.25;;;;;20.60;102292.00;;;;5015230;28;20193;-77
2021/09/03 00:16:45;;;;;;;7.43;5.22;;;;;20.60;102289.00;;;;5013982;28;20559;-78
2021/09/03 00:19:12;;;;;;;8.02;5.50;;;;;20.60;102286.00;;;;5014674;28;20756;-78
2021/09/03 00:21:39;;;;;;;5.57;4.25;;;;;20.60;102290.00;;;;5014424;28;20431;-78
2021/09/03 00:24:07;;;;;;;8.73;5.43;;;;;20.60;102287.00;;;;5014911;28;20197;-78
2021/09/03 00:26:34;;;;;;;6.32;5.10;;;;;20.60;102282.00;;;;5013994;28;20689;-78
2021/09/03 00:29:01;;;;;;;9.13;5.47;;;;;20.60;102285.00;;;;5014665;28;20196;-78
2021/09/03 00:31:30;;;;;;;8.13;5.25;;;;;20.60;102288.00;;;;5014649;28;20209;-78
2021/09/03 00:33:57;;;;;;;9.45;5.22;;;;;20.60;102280.00;;;;5012693;28;20197;-78
2021/09/03 00:36:24;;;;;;;8.43;5.10;;;;;20.60;102277.00;;;;5013555;28;20197;-78
2021/09/03 00:38:52;;;;;;;7.93;5.22;;;;;20.60;102280.00;;;;5014045;28;20208;-78
2021/09/03 00:41:19;;;;;;;7.85;5.10;;;;;20.60;102278.00;;;;5014280;28;20197;-78
2021/09/03 00:43:47;;;;;;;7.25;4.53;;;;;20.60;102277.00;;;;5014222;28;20203;-78
2021/09/03 00:46:14;;;;;;;6.97;5.05;;;;;20.60;102269.00;;;;5015064;28;20232;-78
2021/09/03 00:48:43;;;;;;;7.78;4.57;;;;;20.50;102273.00;;;;5013248;28;20216;-78
2021/09/03 00:51:10;;;;;;;8.43;5.40;;;;;20.50;102273.00;;;;5014239;28;20201;-78
2021/09/03 00:53:38;;;;;;;8.52;5.13;;;;;20.50;102268.00;;;;5014390;28;20189;-78
2021/09/03 00:56:06;;;;;;;12.38;5.85;;;;;20.50;102266.00;;;;5013279;28;20208;-77
2021/09/03 00:58:33;;;;;;;8.98;5.10;;;;;20.50;102262.00;;;;5014854;28;20197;-78
2021/09/03 01:01:00;;;;;;;7.18;4.57;;;;;20.50;102257.00;;;;5014160;28;20201;-77
2021/09/03 01:03:28;;;;;;;8.65;5.40;;;;;20.40;102256.00;;;;5013717;28;20216;-78
2021/09/03 01:06:02;;;;;;;9.80;5.45;;;;;20.40;102252.00;;;;5006730;28;20227;-78
2021/09/03 01:08:29;;;;;;;9.15;5.35;;;;;20.40;102244.00;;;;5014029;28;20204;-78
2021/09/03 01:10:56;;;;;;;7.55;5.35;;;;;20.40;102248.00;;;;5013802;28;20662;-78
2021/09/03 01:13:23;;;;;;;8.50;5.35;;;;;20.40;102246.00;;;;5013159;28;20204;-78
2021/09/03 01:15:51;;;;;;;10.13;5.85;;;;;20.40;102247.00;;;;5014073;28;20212;-78
2021/09/03 01:18:18;;;;;;;6.57;4.75;;;;;20.30;102243.00;;;;5013046;28;20225;-79
2021/09/03 01:20:46;;;;;;;10.00;5.55;;;;;20.30;102233.00;;;;5003496;28;20748;-78
2021/09/03 01:23:14;;;;;;;10.40;5.88;;;;;20.30;102234.00;;;;4995376;28;20506;-79
2021/09/03 01:25:42;;;;;;;8.88;5.30;;;;;20.30;102231.00;;;;5006094;28;20219;-79
2021/09/03 01:28:09;;;;;;;8.70;5.43;;;;;20.30;102240.00;;;;5009089;28;20219;-78
2021/09/03 01:30:36;;;;;;;9.48;5.55;;;;;20.30;102228.00;;;;5010028;28;20205;-78
2021/09/03 01:33:04;;;;;;;8.07;5.95;;;;;20.20;102236.00;;;;5009940;28;20708;-78
2021/09/03 01:35:31;;;;;;;8.93;5.25;;;;;20.20;102236.00;;;;5010905;28;20212;-78
2021/09/03 01:37:58;;;;;;;11.27;5.32;;;;;20.20;102231.00;;;;5010841;28;20232;-78
2021/09/03 01:40:27;;;;;;;8.48;4.88;;;;;20.20;102236.00;;;;5009812;28;20638;-78
2021/09/03 01:42:54;;;;;;;9.13;5.53;;;;;20.30;102231.00;;;;5010403;28;20205;-78
2021/09/03 01:45:21;;;;;;;9.90;5.40;;;;;20.20;102227.00;;;;5010174;28;20208;-78
2021/09/03 01:47:49;;;;;;;9.48;6.22;;;;;20.20;102226.00;;;;5010454;28;20209;-78
2021/09/03 01:50:16;;;;;;;9.02;5.82;;;;;20.20;102230.00;;;;5007974;28;20221;-79
2021/09/03 01:52:43;;;;;;;7.05;4.82;;;;;20.20;102221.00;;;;5007209;28;20201;-78
2021/09/03 01:55:11;;;;;;;9.43;5.60;;;;;20.20;102214.00;;;;5009655;28;20209;-79
2021/09/03 01:57:40;;;;;;;7.78;5.07;;;;;20.20;102216.00;;;;5009649;28;20256;-79
2021/09/03 02:00:08;;;;;;;10.00;5.47;;;;;20.20;102211.00;;;;5008035;28;20197;-78
2021/09/03 02:02:35;;;;;;;7.13;5.68;;;;;20.10;102208.00;;;;5006754;28;20197;-78
2021/09/03 02:05:03;;;;;;;8.07;5.53;;;;;20.10;102208.00;;;;5009556;28;20216;-78
2021/09/03 02:07:30;;;;;;;7.75;5.47;;;;;20.10;102206.00;;;;5010486;28;20225;-78
2021/09/03 02:09:57;;;;;;;9.45;5.63;;;;;20.10;102206.00;;;;5009816;28;20212;-78
2021/09/03 02:12:24;;;;;;;7.95;5.50;;;;;20.10;102202.00;;;;5010109;28;20212;-78
2021/09/03 02:14:53;;;;;;;9.23;5.38;;;;;20.10;102202.00;;;;5009522;28;20204;-78
2021/09/03 02:17:20;;;;;;;9.20;5.35;;;;;20.00;102203.00;;;;5010665;28;20685;-78
2021/09/03 02:19:47;;;;;;;9.90;6.10;;;;;20.00;102199.00;;;;5008666;28;20441;-78
2021/09/03 02:22:15;;;;;;;8.82;5.45;;;;;20.00;102201.00;;;;4991905;28;20694;-78
2021/09/03 02:24:42;;;;;;;8.00;5.28;;;;;20.00;102201.00;;;;5007096;28;20212;-78
2021/09/03 02:27:09;;;;;;;6.50;5.55;;;;;20.00;102194.00;;;;5010224;28;20231;-78
2021/09/03 02:29:37;;;;;;;8.73;6.40;;;;;20.00;102189.00;;;;5009357;28;20200;-78
2021/09/03 02:32:06;;;;;;;9.30;6.40;;;;;20.00;102188.00;;;;5009568;28;20385;-79
2021/09/03 02:34:33;;;;;;;7.63;5.53;;;;;19.90;102186.00;;;;5009044;28;20200;-78
2021/09/03 02:37:00;;;;;;;7.95;5.63;;;;;19.90;102181.00;;;;5009273;28;20201;-78
2021/09/03 02:39:27;;;;;;;8.50;5.45;;;;;19.90;102179.00;;;;5009367;28;20205;-78
2021/09/03 02:41:54;;;;;;;8.48;6.15;;;;;19.90;102181.00;;;;5009440;28;20267;-77
2021/09/03 02:44:22;;;;;;;9.38;6.60;;;;;19.90;102178.00;;;;5008344;28;20196;-78
2021/09/03 02:46:49;;;;;;;9.70;5.90;;;;;19.80;102179.00;;;;5008796;28;20232;-78
2021/09/03 02:49:17;;;;;;;11.30;6.35;;;;;19.80;102169.00;;;;5009785;28;20201;-78
2021/09/03 02:51:45;;;;;;;9.75;5.68;;;;;19.80;102171.00;;;;5009371;28;20960;-78
2021/09/03 02:54:12;;;;;;;9.23;5.88;;;;;19.80;102174.00;;;;5008193;28;20208;-78
2021/09/03 02:56:39;;;;;;;8.38;5.63;;;;;19.80;102172.00;;;;5008499;28;20197;-78
2021/09/03 02:59:06;;;;;;;9.13;5.93;;;;;19.80;102164.00;;;;5002082;28;20198;-78
2021/09/03 03:01:34;;;;;;;10.57;6.38;;;;;19.70;102163.00;;;;4997612;28;20533;-78
2021/09/03 03:04:01;;;;;;;10.40;6.15;;;;;19.70;102171.00;;;;5008284;28;20193;-78
2021/09/03 03:06:29;;;;;;;12.50;6.18;;;;;19.70;102165.00;;;;5009490;28;20232;-79
2021/09/03 03:08:57;;;;;;;7.82;5.97;;;;;19.70;102162.00;;;;5007616;28;20205;-77
2021/09/03 03:11:24;;;;;;;10.65;6.68;;;;;19.70;102163.00;;;;5009259;28;20251;-78
2021/09/03 03:14:01;;;;;;;8.73;6.18;;;;;19.70;102163.00;;;;5008335;28;20201;-78
2021/09/03 03:16:28;;;;;;;7.97;5.70;;;;;19.60;102153.00;;;;5005060;28;20200;-78
2021/09/03 03:18:55;;;;;;;10.93;6.38;;;;;19.60;102148.00;;;;5008245;28;20221;-78
2021/09/03 03:21:22;;;;;;;10.38;6.68;;;;;19.60;102148.00;;;;5008598;28;20216;-78
2021/09/03 03:23:51;;;;;;;10.48;7.20;;;;;19.60;102144.00;;;;5008333;28;20193;-78
2021/09/03 03:26:18;;;;;;;9.73;6.43;;;;;19.60;102139.00;;;;5008822;28;20239;-78
2021/09/03 03:28:45;;;;;;;8.82;5.70;;;;;19.60;102141.00;;;;5006778;28;20216;-78
2021/09/03 03:31:13;;;;;;;11.07;5.82;;;;;19.50;102142.00;;;;4991993;28;20204;-78
2021/09/03 03:33:40;;;;;;;7.32;5.32;;;;;19.50;102137.00;;;;4998319;28;20197;-78
2021/09/03 03:36:07;;;;;;;9.70;6.53;;;;;19.50;102136.00;;;;5008698;28;20217;-78
2021/09/03 03:38:34;;;;;;;8.68;6.22;;;;;19.50;102135.00;;;;5008065;28;20200;-78
2021/09/03 03:41:03;;;;;;;10.23;6.55;;;;;19.50;102140.00;;;;5007072;28;20201;-78
2021/09/03 03:43:30;;;;;;;12.73;6.63;;;;;19.40;102127.00;;;;4989264;28;20209;-78
2021/09/03 03:45:57;;;;;;;10.32;5.70;;;;;19.40;102131.00;;;;5006134;28;20572;-77
2021/09/03 03:48:26;;;;;;;9.65;6.68;;;;;19.40;102129.00;;;;5008489;28;20197;-78
2021/09/03 03:50:54;;;;;;;7.97;5.88;;;;;19.40;102129.00;;;;5008554;28;20197;-78
2021/09/03 03:53:21;;;;;;;9.77;6.22;;;;;19.40;102125.00;;;;5006717;28;20201;-78
2021/09/03 03:55:49;;;;;;;9.63;6.28;;;;;19.30;102120.00;;;;5005690;28;21924;-78
2021/09/03 03:58:18;;;;;;;8.90;6.18;;;;;19.30;102118.00;;;;5007207;28;20215;-78
2021/09/03 04:00:45;;;;;;;11.00;6.97;;;;;19.30;102113.00;;;;5004839;28;20267;-78
2021/09/03 04:03:13;;;;;;;10.05;6.47;;;;;19.30;102105.00;;;;5008518;28;20213;-78
2021/09/03 04:05:40;;;;;;;11.10;6.47;;;;;19.30;102112.00;;;;5006003;28;20884;-79
2021/09/03 04:08:08;;;;;;;9.63;6.70;;;;;19.30;102098.00;;;;5008455;28;20216;-78
2021/09/03 04:10:35;;;;;;;10.02;7.18;;;;;19.20;102106.00;;;;5007754;28;20213;-78
2021/09/03 04:13:03;;;;;;;12.35;7.43;;;;;19.20;102100.00;;;;5007686;28;20204;-78
2021/09/03 04:15:32;;;;;;;12.65;6.68;;;;;19.20;102100.00;;;;5006340;28;20663;-78
2021/09/03 04:17:59;;;;;;;11.50;7.07;;;;;19.20;102108.00;;;;5006715;28;20224;-77
2021/09/03 04:20:27;;;;;;;9.27;6.57;;;;;19.20;102109.00;;;;5007332;28;20217;-77
2021/09/03 04:22:54;;;;;;;8.27;6.32;;;;;19.20;102112.00;;;;5007518;28;20200;-77
2021/09/03 04:25:22;;;;;;;11.23;7.10;;;;;19.20;102121.00;;;;5007770;28;20259;-76
2021/09/03 04:27:49;;;;;;;12.05;7.28;;;;;19.20;102109.00;;;;5007254;28;20231;-77
2021/09/03 04:30:17;;;;;;;12.48;6.35;;;;;19.10;102119.00;;;;5006734;28;20201;-77
2021/09/03 04:32:45;;;;;;;12.15;7.47;;;;;19.10;102117.00;;;;5006814;28;20228;-77
2021/09/03 04:35:13;;;;;;;11.13;6.90;;;;;19.10;102109.00;;;;5003534;28;20666;-77
2021/09/03 04:37:43;;;;;;;8.73;6.47;;;;;19.10;102113.00;;;;5007193;28;20208;-77
2021/09/03 04:40:12;;;;;;;13.68;8.00;;;;;19.10;102114.00;;;;5007953;28;20197;-77
2021/09/03 04:42:39;;;;;;;9.20;6.30;;;;;19.10;102120.00;;;;5005851;28;20208;-77
2021/09/03 04:45:08;;;;;;;9.98;6.90;;;;;19.10;102126.00;;;;5007634;28;20200;-78
2021/09/03 04:47:36;;;;;;;10.88;6.78;;;;;19.10;102116.00;;;;5007290;28;20596;-77
2021/09/03 04:50:06;;;;;;;9.35;7.18;;;;;19.10;102119.00;;;;5007416;28;20228;-77
2021/09/03 04:52:33;;;;;;;11.18;7.10;;;;;19.10;102116.00;;;;5007777;28;20212;-77
2021/09/03 04:55:00;;;;;;;16.08;7.80;;;;;19.10;102122.00;;;;5006200;28;20624;-76
2021/09/03 04:57:28;;;;;;;14.20;7.25;;;;;19.10;102117.00;;;;5010722;28;20208;-74
2021/09/03 04:59:55;;;;;;;16.63;11.27;;;;;19.00;102118.00;;;;5009495;28;20516;-77
2021/09/03 05:02:22;;;;;;;14.10;8.15;;;;;19.10;102116.00;;;;5007757;28;20216;-78
2021/09/03 05:04:49;;;;;;;11.02;7.47;;;;;19.20;102110.00;;;;5007990;28;20197;-77
2021/09/03 05:07:18;;;;;;;9.00;6.15;;;;;19.10;102111.00;;;;5011052;28;20688;-77
2021/09/03 05:09:46;;;;;;;11.25;7.15;;;;;19.10;102105.00;;;;5011331;28;20208;-77
2021/09/03 05:12:13;;;;;;;10.95;7.05;;;;;19.10;102105.00;;;;5012073;28;20589;-76
2021/09/03 05:14:40;;;;;;;11.43;6.15;;;;;19.10;102112.00;;;;5010735;28;20216;-76
2021/09/03 05:17:07;;;;;;;12.93;7.85;;;;;19.10;102108.00;;;;5009578;28;20208;-76
2021/09/03 05:19:35;;;;;;;13.25;8.00;;;;;19.10;102096.00;;;;5011909;28;20207;-77
2021/09/03 05:22:02;;;;;;;8.55;6.20;;;;;19.10;102101.00;;;;5011314;28;20220;-77
2021/09/03 05:24:30;;;;;;;9.45;7.28;;;;;19.10;102095.00;;;;5010331;28;20212;-77
2021/09/03 05:26:58;;;;;;;11.05;7.93;;;;;19.10;102105.00;;;;5008250;28;20221;-77
2021/09/03 05:29:25;;;;;;;11.75;7.30;;;;;19.10;102100.00;;;;5005054;28;20201;-77
2021/09/03 05:31:52;;;;;;;11.05;6.28;;;;;19.10;102103.00;;;;5009047;28;20667;-77
2021/09/03 05:34:19;;;;;;;10.40;6.72;;;;;19.10;102110.00;;;;5004096;28;20208;-77
2021/09/03 05:36:46;;;;;;;9.90;6.07;;;;;19.10;102114.00;;;;5007341;28;20205;-77
2021/09/03 05:39:14;;;;;;;12.23;7.65;;;;;19.20;102111.00;;;;5008412;28;20200;-76
2021/09/03 05:41:42;;;;;;;10.65;6.43;;;;;19.20;102112.00;;;;5009976;28;20201;-76
2021/09/03 05:44:10;;;;;;;10.82;7.18;;;;;19.20;102109.00;;;;5008859;28;20212;-76
2021/09/03 05:46:37;;;;;;;11.93;7.32;;;;;19.20;102119.00;;;;5001484;28;20189;-75
2021/09/03 05:49:04;;;;;;;9.32;6.13;;;;;19.20;102113.00;;;;5010924;28;20201;-76
2021/09/03 05:51:31;;;;;;;11.77;7.05;;;;;19.20;102109.00;;;;5010267;28;20635;-76
2021/09/03 05:54:01;;;;;;;11.60;6.85;;;;;19.20;102115.00;;;;5010304;28;20201;-76
2021/09/03 05:56:28;;;;;;;10.95;6.30;;;;;19.30;102104.00;;;;5008530;28;20320;-77
2021/09/03 05:58:56;;;;;;;10.00;6.28;;;;;19.30;102104.00;;;;5007656;28;20200;-75
2021/09/03 06:01:24;;;;;;;10.80;6.88;;;;;19.30;102104.00;;;;5008980;28;20606;-77
2021/09/03 06:03:51;;;;;;;10.88;6.90;;;;;19.30;102093.00;;;;4996446;28;20208;-78
2021/09/03 06:06:18;;;;;;;10.55;7.00;;;;;19.30;102104.00;;;;5010095;28;20211;-79
2021/09/03 06:08:46;;;;;;;10.63;6.78;;;;;19.40;102112.00;;;;5009297;28;20226;-78
2021/09/03 06:11:13;;;;;;;10.60;6.45;;;;;19.40;102108.00;;;;5009652;28;20281;-79
2021/09/03 06:13:40;;;;;;;9.38;6.80;;;;;19.50;102106.00;;;;5009342;28;20204;-78
2021/09/03 06:16:09;;;;;;;10.18;6.65;;;;;19.50;102102.00;;;;5007816;28;20585;-78
2021/09/03 06:18:37;;;;;;;11.50;6.82;;;;;19.50;102103.00;;;;5007109;28;20609;-77
2021/09/03 06:21:04;;;;;;;9.52;6.05;;;;;19.60;102101.00;;;;5010038;28;20221;-77
2021/09/03 06:23:31;;;;;;;11.30;6.18;;;;;19.60;102098.00;;;;5009318;28;20201;-76
2021/09/03 06:25:58;;;;;;;9.77;6.55;;;;;19.70;102106.00;;;;5010196;28;20222;-78
2021/09/03 06:28:26;;;;;;;10.50;7.03;;;;;19.70;102109.00;;;;4993260;28;20221;-78
2021/09/03 06:30:53;;;;;;;10.30;6.78;;;;;19.80;102116.00;;;;4990735;28;20754;-78
2021/09/03 06:33:21;;;;;;;12.60;7.25;;;;;19.80;102118.00;;;;5002368;28;20201;-78
2021/09/03 06:35:49;;;;;;;10.40;7.07;;;;;19.90;102128.00;;;;5009412;28;20216;-78
2021/09/03 06:38:16;;;;;;;10.63;6.70;;;;;19.90;102121.00;;;;5010464;28;20208;-78
2021/09/03 06:40:43;;;;;;;10.63;7.32;;;;;20.00;102128.00;;;;5008879;28;20208;-78
2021/09/03 06:43:10;;;;;;;12.95;7.35;;;;;20.10;102120.00;;;;5008560;28;20231;-78
2021/09/03 06:45:38;;;;;;;13.25;7.88;;;;;20.10;102121.00;;;;5002648;28;20216;-78
2021/09/03 06:48:06;;;;;;;11.38;7.25;;;;;20.20;102115.00;;;;4998835;28;20598;-78
2021/09/03 06:50:34;;;;;;;12.05;8.13;;;;;20.20;102117.00;;;;5004022;28;20205;-78
2021/09/03 06:53:01;;;;;;;10.02;6.53;;;;;20.30;102126.00;;;;5001188;28;20216;-78
2021/09/03 06:55:29;;;;;;;10.82;7.60;;;;;20.40;102117.00;;;;5000559;28;20197;-78
2021/09/03 06:57:56;;;;;;;13.32;7.78;;;;;20.40;102125.00;;;;5003688;28;20196;-77
2021/09/03 07:00:23;;;;;;;11.18;7.72;;;;;20.50;102122.00;;;;5009685;28;20201;-78
2021/09/03 07:02:50;;;;;;;11.98;7.00;;;;;20.50;102133.00;;;;4994000;28;20197;-77
2021/09/03 07:05:17;;;;;;;12.07;8.43;;;;;20.60;102126.00;;;;4990586;28;20202;-78
2021/09/03 07:07:46;;;;;;;15.32;8.60;;;;;20.60;102120.00;;;;5004862;28;20257;-78
2021/09/03 07:10:13;;;;;;;12.27;8.63;;;;;20.70;102117.00;;;;5004760;28;20565;-78
2021/09/03 07:12:40;;;;;;;11.25;7.25;;;;;20.70;102121.00;;;;5005336;28;20213;-78
2021/09/03 07:15:09;;;;;;;14.98;8.52;;;;;20.80;102127.00;;;;5008460;28;20666;-78
2021/09/03 07:17:36;;;;;;;12.15;8.10;;;;;20.90;102128.00;;;;5006434;28;20263;-78
2021/09/03 07:20:04;;;;;;;12.73;8.35;;;;;20.90;102118.00;;;;4998970;28;20209;-79
2021/09/03 07:22:32;;;;;;;12.15;7.88;;;;;21.00;102118.00;;;;5008708;28;20201;-78
2021/09/03 07:25:01;;;;;;;12.20;8.73;;;;;21.10;102113.00;;;;5008230;28;20220;-77
2021/09/03 07:27:28;;;;;;;13.48;8.50;;;;;21.10;102117.00;;;;5008996;28;20224;-78
2021/09/03 07:29:56;;;;;;;12.52;7.55;;;;;21.20;102122.00;;;;5008399;28;20208;-78
2021/09/03 07:32:23;;;;;;;14.15;8.02;;;;;21.30;102120.00;;;;5008839;28;20193;-79
2021/09/03 07:34:50;;;;;;;11.73;7.25;;;;;21.40;102120.00;;;;5009076;28;20690;-79
2021/09/03 07:37:17;;;;;;;14.70;8.07;;;;;21.40;102118.00;;;;5009052;28;20197;-79
2021/09/03 07:39:45;;;;;;;11.20;8.05;;;;;21.50;102113.00;;;;5008395;28;21039;-78
2021/09/03 07:42:13;;;;;;;10.88;7.55;;;;;21.60;102116.00;;;;5009330;28;20208;-78
2021/09/03 07:44:40;;;;;;;12.68;8.65;;;;;21.70;102104.00;;;;5008733;28;20236;-79
2021/09/03 07:47:08;;;;;;;10.90;7.78;;;;;21.80;102109.00;;;;5007563;28;20199;-79
2021/09/03 07:49:35;;;;;;;12.55;6.97;;;;;21.80;102113.00;;;;5007199;28;20201;-79
2021/09/03 07:52:03;;;;;;;10.27;7.03;;;;;22.00;102104.00;;;;5007627;28;20555;-78
2021/09/03 07:54:30;;;;;;;11.25;7.82;;;;;22.10;102100.00;;;;5008121;28;20197;-79
2021/09/03 07:56:57;;;;;;;15.38;8.23;;;;;22.20;102102.00;;;;5008530;28;20193;-79
2021/09/03 07:59:26;;;;;;;11.75;7.85;;;;;22.30;102098.00;;;;5008409;28;20200;-79
2021/09/03 08:01:53;;;;;;;10.98;7.13;;;;;22.40;102099.00;;;;5008355;28;20590;-79
2021/09/03 08:04:20;;;;;;;11.20;8.23;;;;;22.50;102107.00;;;;5008857;28;20196;-80
2021/09/03 08:06:47;;;;;;;12.32;7.10;;;;;22.60;102101.00;;;;5008128;28;20578;-79
2021/09/03 08:09:15;;;;;;;12.77;8.02;;;;;22.70;102101.00;;;;5008875;28;20228;-79
2021/09/03 08:11:42;;;;;;;11.45;7.47;;;;;22.80;102096.00;;;;5008207;28;20697;-79
2021/09/03 08:14:09;;;;;;;13.77;8.90;;;;;22.90;102092.00;;;;5009073;28;20208;-79
2021/09/03 08:16:38;;;;;;;11.63;6.63;;;;;23.00;102095.00;;;;5008117;28;20212;-79
2021/09/03 08:19:05;;;;;;;9.50;6.90;;;;;23.10;102098.00;;;;5008324;28;20244;-79
2021/09/03 08:21:32;;;;;;;14.57;8.50;;;;;23.20;102094.00;;;;5008030;28;20224;-79
2021/09/03 08:24:00;;;;;;;11.82;7.80;;;;;23.30;102094.00;;;;5009244;28;20205;-79
2021/09/03 08:26:27;;;;;;;11.57;7.40;;;;;23.50;102103.00;;;;5008407;28;20223;-79
2021/09/03 08:28:55;;;;;;;12.35;8.10;;;;;23.60;102105.00;;;;5011032;28;20229;-79
2021/09/03 08:31:23;;;;;;;19.20;7.57;;;;;23.70;102112.00;;;;5012756;28;20201;-79
2021/09/03 08:33:51;;;;;;;12.00;6.80;;;;;23.80;102110.00;;;;5012006;28;20197;-79
2021/09/03 08:36:19;;;;;;;11.13;7.45;;;;;24.00;102109.00;;;;5012581;28;20197;-79
2021/09/03 08:38:46;;;;;;;15.45;8.65;;;;;24.10;102114.00;;;;5012534;28;20263;-79
2021/09/03 08:41:15;;;;;;;11.23;7.10;;;;;24.20;102105.00;;;;5012528;28;20212;-78
2021/09/03 08:43:43;;;;;;;9.80;8.15;;;;;24.30;102106.00;;;;5011906;28;20205;-78
2021/09/03 08:46:10;;;;;;;12.15;7.30;;;;;24.50;102107.00;;;;5011609;28;20201;-78
2021/09/03 08:48:38;;;;;;;9.15;7.22;;;;;24.60;102102.00;;;;5002372;28;20251;-78
2021/09/03 08:51:07;;;;;;;9.15;7.03;;;;;24.70;102105.00;;;;5011270;28;20212;-78
2021/09/03 08:53:34;;;;;;;9.82;6.50;;;;;24.90;102101.00;;;;5009865;28;20227;-78
2021/09/03 08:56:01;;;;;;;9.65;6.47;;;;;25.00;102105.00;;;;5010819;28;20212;-78
2021/09/03 08:58:28;;;;;;;8.48;6.53;;;;;25.10;102108.00;;;;5009884;28;20220;-78
2021/09/03 09:01:08;;;;;;;9.25;6.30;;;;;25.20;102106.00;;;;5000404;28;20193;-78
2021/09/03 09:03:36;;;;;;;12.88;7.15;;;;;25.40;102110.00;;;;5011843;28;20207;-78
2021/09/03 09:06:04;;;;;;;8.18;6.50;;;;;25.60;102108.00;;;;5010844;28;20197;-79
2021/09/03 09:08:35;;;;;;;10.55;6.50;;;;;25.70;102108.00;;;;5011462;28;20225;-78
2021/09/03 09:11:04;;;;;;;10.35;6.22;;;;;25.80;102107.00;;;;5010856;28;20251;-78
2021/09/03 09:13:33;;;;;;;9.40;6.65;;;;;26.00;102110.00;;;;5011304;28;20197;-80
2021/09/03 09:16:05;;;;;;;10.88;6.53;;;;;26.10;102109.00;;;;5011463;28;20193;-79
2021/09/03 09:18:34;;;;;;;9.35;5.85;;;;;26.20;102107.00;;;;5006619;28;20593;-79
2021/09/03 09:21:10;;;;;;;10.98;5.93;;;;;26.30;102117.00;;;;5000154;28;20213;-79
2021/09/03 09:23:43;;;;;;;17.17;6.95;;;;;26.40;102117.00;;;;5003742;28;20201;-79
2021/09/03 09:26:11;;;;;;;8.73;6.50;;;;;26.60;102115.00;;;;5002289;28;20200;-79
2021/09/03 09:28:38;;;;;;;12.15;6.53;;;;;26.70;102121.00;;;;5006708;28;20217;-79
2021/09/03 09:31:06;;;;;;;8.55;6.55;;;;;26.80;102119.00;;;;5004317;28;20288;-79
2021/09/03 09:33:34;;;;;;;7.55;5.65;;;;;27.00;102117.00;;;;5002207;28;20209;-79
2021/09/03 09:36:03;;;;;;;12.80;6.97;;;;;27.10;102114.00;;;;5002406;28;20292;-79
2021/09/03 09:38:32;;;;;;;7.72;6.47;;;;;27.10;102106.00;;;;5003047;28;20197;-78
2021/09/03 09:41:02;;;;;;;6.50;5.25;;;;;27.20;102112.00;;;;4998293;28;20198;-79
2021/09/03 09:43:33;;;;;;;8.82;6.35;;;;;27.30;102116.00;;;;5001077;28;20208;-79
2021/09/03 09:46:15;;;;;;;12.30;5.43;;;;;27.30;102106.00;;;;4996664;28;20560;-78
2021/09/03 09:48:57;;;;;;;10.60;5.97;;;;;27.40;102105.00;;;;4998854;28;20220;-79
2021/09/03 09:51:26;;;;;;;17.00;5.88;;;;;27.60;102104.00;;;;4996971;28;20284;-78
2021/09/03 09:53:54;;;;;;;9.85;5.82;;;;;27.70;102101.00;;;;5003323;28;20647;-79
2021/09/03 09:56:23;;;;;;;8.10;6.20;;;;;27.80;102102.00;;;;5005094;28;20564;-79
2021/09/03 09:58:52;;;;;;;7.97;6.38;;;;;27.90;102094.00;;;;5005310;28;20598;-79
2021/09/03 10:01:20;;;;;;;6.88;5.32;;;;;28.00;102098.00;;;;4997517;28;20567;-79
2021/09/03 10:03:48;;;;;;;9.95;6.50;;;;;28.10;102098.00;;;;4996006;28;20225;-78
2021/09/03 10:06:17;;;;;;;8.68;5.82;;;;;28.20;102101.00;;;;5002631;28;20186;-78
2021/09/03 10:08:46;;;;;;;8.55;5.93;;;;;28.30;102093.00;;;;4999506;28;20220;-79
2021/09/03 10:11:14;;;;;;;8.82;6.13;;;;;28.40;102094.00;;;;5000324;28;20193;-79
2021/09/03 10:13:44;;;;;;;9.73;5.63;;;;;28.40;102095.00;;;;5003388;28;20205;-78
2021/09/03 10:16:11;;;;;;;7.72;4.97;;;;;28.50;102095.00;;;;5008475;28;20667;-78
2021/09/03 10:18:40;;;;;;;9.90;6.05;;;;;28.60;102088.00;;;;5009400;28;20228;-79
2021/09/03 10:21:08;;;;;;;6.88;5.30;;;;;28.70;102091.00;;;;5009757;28;20251;-79
2021/09/03 10:23:56;;;;;;;11.63;6.72;;;;;28.70;102091.00;;;;4990595;28;20225;-77
2021/09/03 10:26:26;;;;;;;8.55;5.57;;;;;28.80;102090.00;;;;4993362;28;20189;-78
2021/09/03 10:29:16;;;;;;;6.47;4.85;;;;;28.70;102083.00;;;;5009406;28;20239;-78
2021/09/03 10:32:21;;;;;;;7.38;5.60;;;;;28.80;102083.00;;;;5001212;28;20923;-77
2021/09/03 10:34:59;;;;;;;6.35;5.38;;;;;29.00;102085.00;;;;4966663;28;20194;-77
2021/09/03 10:37:29;;;;;;;7.25;5.03;;;;;29.00;102084.00;;;;4968972;28;20220;-77
2021/09/03 10:40:02;;;;;;;8.02;6.07;;;;;29.10;102089.00;;;;4992761;28;20701;-77
2021/09/03 10:42:48;;;;;;;10.20;6.68;;;;;29.10;102080.00;;;;5009316;28;21270;-76
2021/09/03 10:45:21;;;;;;;9.50;6.15;;;;;29.20;102081.00;;;;5008970;28;20259;-77
2021/09/03 10:47:51;;;;;;;8.55;5.32;;;;;29.30;102080.00;;;;5009961;28;20201;-77
2021/09/03 10:50:21;;;;;;;8.38;5.80;;;;;29.30;102076.00;;;;5009783;28;20229;-77
2021/09/03 10:53:14;;;;;;;8.80;6.53;;;;;29.30;102076.00;;;;5009140;28;20324;-77
2021/09/03 10:55:53;;;;;;;12.85;6.18;;;;;29.30;102067.00;;;;5009508;28;20697;-77
2021/09/03 10:58:31;;;;;;;6.72;5.40;;;;;29.30;102063.00;;;;4997124;28;20200;-76
2021/09/03 11:01:41;;;;;;;6.90;5.32;;;;;29.30;102060.00;;;;5009834;28;20201;-77
2021/09/03 11:04:17;;;;;;;10.27;5.88;;;;;29.40;102061.00;;;;5008579;28;20205;-77
2021/09/03 11:06:56;;;;;;;6.03;5.32;;;;;29.40;102052.00;;;;5008863;28;20684;-77
2021/09/03 11:09:26;;;;;;;6.60;4.82;;;;;29.50;102049.00;;;;5009908;28;20597;-76
2021/09/03 11:11:56;;;;;;;10.32;5.50;;;;;29.50;102051.00;;;;5009127;28;20188;-77
2021/09/03 11:14:25;;;;;;;8.55;5.15;;;;;29.60;102052.00;;;;5009913;28;20197;-77
2021/09/03 11:16:56;;;;;;;7.97;4.45;;;;;29.60;102038.00;;;;5009646;28;20216;-77
2021/09/03 11:19:28;;;;;;;8.15;5.28;;;;;29.60;102034.00;;;;5009320;28;20760;-77
2021/09/03 11:21:58;;;;;;;6.43;4.97;;;;;29.70;102035.00;;;;5009608;28;20225;-76
2021/09/03 11:24:29;;;;;;;7.03;5.32;;;;;29.70;102035.00;;;;5009242;28;20671;-77
2021/09/03 11:26:57;;;;;;;8.55;5.38;;;;;29.80;102037.00;;;;5008555;28;20204;-76
2021/09/03 11:29:28;;;;;;;8.65;5.63;;;;;29.80;102038.00;;;;5008956;28;20216;-77
2021/09/03 11:31:57;;;;;;;7.00;5.20;;;;;29.90;102026.00;;;;5009261;28;20189;-77
2021/09/03 11:34:51;;;;;;;7.03;4.93;;;;;29.70;102030.00;;;;5008720;28;20208;-77
2021/09/03 11:37:21;;;;;;;8.55;5.75;;;;;29.90;102025.00;;;;5008277;28;20193;-76
2021/09/03 11:39:48;;;;;;;7.47;5.20;;;;;29.90;102026.00;;;;5008816;28;20227;-78
2021/09/03 11:42:20;;;;;;;7.00;5.22;;;;;29.90;102024.00;;;;5008348;28;20201;-78
2021/09/03 11:44:58;;;;;;;7.88;5.68;;;;;29.90;102028.00;;;;5008725;28;20209;-79
2021/09/03 11:47:36;;;;;;;12.98;5.75;;;;;29.90;102022.00;;;;5008072;28;20212;-79
2021/09/03 11:50:10;;;;;;;7.68;4.97;;;;;30.00;102032.00;;;;5007325;28;20228;-78
2021/09/03 11:52:38;;;;;;;6.88;5.45;;;;;30.00;102031.00;;;;5004531;28;20211;-79
2021/09/03 11:55:08;;;;;;;5.80;5.20;;;;;29.90;102023.00;;;;5008762;28;20208;-79
2021/09/03 11:57:51;;;;;;;7.85;5.40;;;;;29.90;102025.00;;;;5008084;28;20296;-78
2021/09/03 12:00:20;;;;;;;9.82;5.15;;;;;29.90;102019.00;;;;5008889;28;20201;-78
2021/09/03 12:02:48;;;;;;;6.43;5.05;;;;;30.00;102019.00;;;;5007487;28;20264;-79
2021/09/03 12:05:18;;;;;;;7.80;5.22;;;;;29.90;102016.00;;;;5009163;28;20224;-79
2021/09/03 12:08:02;;;;;;;7.72;4.90;;;;;29.80;102016.00;;;;5008726;28;20209;-79
2021/09/03 12:10:33;;;;;;;7.55;5.78;;;;;29.90;102014.00;;;;5008636;28;20228;-79
2021/09/03 12:13:07;;;;;;;8.68;5.70;;;;;29.90;102001.00;;;;5005149;28;20199;-78